KBIX/BIX METAR and TAF weather

Enter ICAO airport designator
Station Type Date Time Source
KBIX METAR 2019/02/23 02:56 UTC NOAA

KBIX 230256Z 15009KT 1 1/8SM BR OVC001 20/20 A3005 RMK AO2A SLP179 T02030203 52006


Station Type Date Time Source
KBIX Decoded METAR 2019/02/23 02:56 UTC NOAA

Keesler Air Force Base / Biloxi, MS, United States (KBIX) 30-25N 088-55W
Feb 22, 2019 - 09:56 PM EST / 2019.02.23 0256 UTC
Wind: from the SSE (150 degrees) at 10 MPH (9 KT):0
Visibility: 1 1/8 mile(s):0
Sky conditions: overcast
Weather: mist
Temperature: 68.5 F (20.3 C)
Dew Point: 68.5 F (20.3 C)
Relative Humidity: 100%
Pressure (altimeter): 30.05 in. Hg (1017 hPa)
Pressure tendency: 0.02 inches (0.6 hPa) higher than three hours ago
ob: KBIX 230256Z 15009KT 1 1/8SM BR OVC001 20/20 A3005 RMK AO2A SLP179 T02030203 52006
cycle: 3

Station Type Date Time Source
KBIX TAF 2019/02/23 02:09 UTC NOAA

TAF KBIX 230200Z 2302/2408 14009KT 0800 FG OVC001 QNH3000INS
BECMG 2315/2316 16012KT 6000 -SHRA BKN005 QNH2996INS
BECMG 2403/2404 19010G15KT 6000 -SHRA BKN002 QNH2993INS TX21/2321Z TN19/2312Z LAST NO
AMDS AFT 2305 NEXT 2510


Example: see airport list